createdAt,value
2023-01-11T00:00:15.396Z,2.72
2023-01-11T00:02:41.630Z,6.70
2023-01-11T00:05:09.442Z,10.30
2023-01-11T00:07:35.652Z,6.57
2023-01-11T00:10:04.613Z,6.43
2023-01-11T00:12:31.368Z,9.60
2023-01-11T00:14:57.607Z,5.78
2023-01-11T00:17:23.814Z,5.20
2023-01-11T00:19:50.033Z,5.65
2023-01-11T00:22:16.263Z,13.05
2023-01-11T00:24:42.523Z,4.30
2023-01-11T00:27:08.741Z,7.45
2023-01-11T00:29:34.963Z,7.13
2023-01-11T00:32:01.172Z,5.80
2023-01-11T00:34:27.449Z,5.75
2023-01-11T00:36:53.669Z,9.00
2023-01-11T00:39:19.919Z,3.45
2023-01-11T00:42:04.705Z,10.65
2023-01-11T00:44:49.620Z,6.25
2023-01-11T00:47:35.170Z,8.63
2023-01-11T00:50:01.919Z,7.97
2023-01-11T00:52:28.383Z,5.50
2023-01-11T00:54:54.631Z,4.82
2023-01-11T00:57:20.915Z,8.90
2023-01-11T00:59:47.160Z,4.97
2023-01-11T01:02:13.571Z,4.28
2023-01-11T01:04:40.088Z,4.88
2023-01-11T01:07:06.819Z,5.22
2023-01-11T01:09:33.173Z,3.92
2023-01-11T01:12:01.800Z,3.90
2023-01-11T01:14:29.301Z,3.90
2023-01-11T01:16:57.068Z,7.68
2023-01-11T01:19:23.470Z,3.25
2023-01-11T01:21:50.147Z,5.32
2023-01-11T01:24:16.540Z,6.00
2023-01-11T01:26:42.795Z,4.70
2023-01-11T01:29:09.044Z,6.75
2023-01-11T01:31:35.382Z,7.07
2023-01-11T01:34:01.689Z,7.95
2023-01-11T01:36:27.917Z,4.07
2023-01-11T01:38:54.128Z,3.15
2023-01-11T01:41:20.472Z,10.93
2023-01-11T01:43:48.551Z,5.50
2023-01-11T01:46:15.392Z,3.50
2023-01-11T01:51:08.572Z,7.53
2023-01-11T01:53:37.073Z,6.82
2023-01-11T01:56:05.211Z,9.43
2023-01-11T01:58:35.244Z,9.00
2023-01-11T02:01:21.537Z,6.95
2023-01-11T02:03:48.145Z,5.25
2023-01-11T02:06:14.460Z,3.47
2023-01-11T02:08:41.600Z,5.82
2023-01-11T02:11:27.841Z,6.05
2023-01-11T02:13:54.278Z,4.50
2023-01-11T02:16:20.567Z,2.90
2023-01-11T02:18:46.794Z,3.88
2023-01-11T02:21:16.105Z,6.70
2023-01-11T02:24:01.167Z,4.75
2023-01-11T02:26:49.856Z,3.63
2023-01-11T02:29:22.088Z,8.95
2023-01-11T02:31:57.585Z,6.47
2023-01-11T02:34:37.739Z,4.63
2023-01-11T02:37:14.360Z,3.90
2023-01-11T02:40:03.670Z,2.20
2023-01-11T02:42:55.426Z,3.70
2023-01-11T02:45:24.513Z,4.57
2023-01-11T02:47:56.309Z,4.00
2023-01-11T02:50:22.609Z,5.07
2023-01-11T02:52:52.343Z,6.43
2023-01-11T02:55:21.123Z,4.97
2023-01-11T02:57:48.008Z,3.38
2023-01-11T03:02:40.473Z,4.57
2023-01-11T03:05:13.609Z,9.60
2023-01-11T03:07:46.383Z,2.92
2023-01-11T03:10:19.987Z,4.20
2023-01-11T03:12:52.290Z,2.30
2023-01-11T03:15:27.596Z,4.75
2023-01-11T03:18:02.970Z,2.42
2023-01-11T03:20:29.254Z,5.75
2023-01-11T03:22:55.540Z,2.92
2023-01-11T03:25:34.177Z,8.02
2023-01-11T03:28:03.601Z,4.47
2023-01-11T03:30:29.865Z,2.63
2023-01-11T03:33:03.418Z,5.00
2023-01-11T03:35:41.989Z,5.88
2023-01-11T03:38:23.614Z,3.85
2023-01-11T03:40:52.988Z,8.43
2023-01-11T03:43:21.145Z,4.38
2023-01-11T03:45:58.010Z,4.63
2023-01-11T03:48:27.408Z,5.10
2023-01-11T03:50:54.381Z,5.13
2023-01-11T03:55:49.424Z,6.97
2023-01-11T03:58:15.718Z,4.15
2023-01-11T04:00:42.727Z,9.40
2023-01-11T04:03:12.409Z,3.45
2023-01-11T04:05:39.970Z,3.65
2023-01-11T04:08:06.230Z,3.50
2023-01-11T04:10:32.469Z,5.05
2023-01-11T04:12:58.746Z,8.43
2023-01-11T04:15:24.961Z,4.85
2023-01-11T04:17:51.219Z,5.57
2023-01-11T04:20:17.513Z,6.55
2023-01-11T04:22:43.767Z,5.70
2023-01-11T04:25:10.058Z,7.90
2023-01-11T04:27:36.310Z,4.15
2023-01-11T04:30:02.838Z,5.05
2023-01-11T04:32:29.085Z,4.47
2023-01-11T04:34:55.338Z,3.60
2023-01-11T04:37:21.586Z,1.95
2023-01-11T04:39:47.813Z,3.40
2023-01-11T04:42:20.039Z,3.85
2023-01-11T04:44:50.106Z,6.85
2023-01-11T04:47:16.968Z,3.65
2023-01-11T04:52:10.057Z,4.70
2023-01-11T04:54:36.299Z,3.30
2023-01-11T04:57:02.793Z,2.22
2023-01-11T04:59:29.059Z,7.32
2023-01-11T05:01:55.300Z,7.05
2023-01-11T05:04:21.696Z,3.80
2023-01-11T05:06:48.262Z,4.35
2023-01-11T05:09:15.390Z,5.68
2023-01-11T05:11:41.781Z,4.50
2023-01-11T05:14:08.121Z,1.75
2023-01-11T05:16:34.448Z,5.07
2023-01-11T05:19:01.694Z,6.20
2023-01-11T05:21:29.512Z,3.65
2023-01-11T05:23:55.729Z,4.15
2023-01-11T05:26:23.123Z,3.05
2023-01-11T05:28:50.020Z,2.22
2023-01-11T05:33:42.975Z,5.25
2023-01-11T05:36:16.480Z,3.30
2023-01-11T05:38:43.040Z,3.78
2023-01-11T05:41:09.866Z,7.65
2023-01-11T05:43:55.442Z,3.67
2023-01-11T05:46:21.976Z,2.65
2023-01-11T05:48:48.258Z,5.22
2023-01-11T05:51:14.783Z,3.25
2023-01-11T05:53:41.069Z,6.28
2023-01-11T05:56:07.391Z,4.07
2023-01-11T05:58:33.715Z,4.43
2023-01-11T06:00:59.957Z,6.00
2023-01-11T06:03:27.039Z,4.72
2023-01-11T06:05:53.291Z,5.10
2023-01-11T06:08:19.704Z,3.72
2023-01-11T06:10:55.601Z,4.07
2023-01-11T06:13:28.374Z,5.90
2023-01-11T06:16:02.177Z,7.28
2023-01-11T06:18:29.080Z,3.45
2023-01-11T06:23:22.279Z,5.07
2023-01-11T06:28:14.727Z,3.40
2023-01-11T06:30:41.032Z,6.40
2023-01-11T06:33:08.640Z,2.50
2023-01-11T06:35:39.390Z,4.20
2023-01-11T06:38:10.610Z,4.32
2023-01-11T06:40:37.647Z,5.95
2023-01-11T06:43:03.998Z,3.85
2023-01-11T06:45:30.403Z,5.70
2023-01-11T06:47:56.683Z,5.53
2023-01-11T06:50:22.989Z,5.95
2023-01-11T06:52:52.864Z,5.57
2023-01-11T06:55:19.164Z,3.08
2023-01-11T06:57:45.385Z,4.22
2023-01-11T07:00:11.862Z,2.70
2023-01-11T07:02:38.244Z,2.33
2023-01-11T07:05:04.658Z,3.45
2023-01-11T07:07:30.888Z,3.55
2023-01-11T07:09:57.213Z,3.60
2023-01-11T07:12:23.486Z,1.30
2023-01-11T07:14:49.760Z,3.30
2023-01-11T07:17:15.995Z,3.70
2023-01-11T07:19:42.258Z,2.10
2023-01-11T07:22:08.486Z,1.88
2023-01-11T07:24:34.802Z,2.03
2023-01-11T07:27:01.755Z,1.20
2023-01-11T07:31:54.259Z,4.32
2023-01-11T07:34:20.553Z,2.10
2023-01-11T07:36:46.815Z,3.80
2023-01-11T07:39:13.035Z,1.60
2023-01-11T07:41:57.797Z,8.60
2023-01-11T07:44:24.067Z,2.10
2023-01-11T07:46:50.494Z,1.65
2023-01-11T07:49:16.777Z,3.72
2023-01-11T07:51:43.052Z,3.35
2023-01-11T07:54:09.357Z,5.32
2023-01-11T07:56:35.569Z,3.17
2023-01-11T07:59:01.941Z,1.40
2023-01-11T08:01:28.242Z,1.20
2023-01-11T08:03:54.564Z,3.45
2023-01-11T08:06:20.877Z,3.63
2023-01-11T08:08:47.101Z,4.40
2023-01-11T08:11:32.039Z,3.05
2023-01-11T08:14:16.801Z,2.22
2023-01-11T08:16:43.036Z,5.65
2023-01-11T08:19:09.262Z,4.90
2023-01-11T08:21:35.557Z,2.45
2023-01-11T08:24:01.830Z,1.13
2023-01-11T08:26:28.191Z,3.92
2023-01-11T08:28:54.627Z,1.77
2023-01-11T08:31:21.429Z,2.42
2023-01-11T08:33:50.516Z,2.08
2023-01-11T08:36:16.766Z,1.70
2023-01-11T08:38:43.562Z,1.50
2023-01-11T08:41:14.474Z,2.88
2023-01-11T08:43:41.313Z,4.13
2023-01-11T08:46:07.817Z,2.85
2023-01-11T08:48:34.177Z,4.13
2023-01-11T08:51:00.458Z,6.30
2023-01-11T08:53:26.859Z,1.25
2023-01-11T08:55:53.485Z,5.80
2023-01-11T08:58:21.560Z,1.45
2023-01-11T09:00:47.865Z,2.38
2023-01-11T09:03:15.160Z,4.03
2023-01-11T09:05:41.805Z,2.65
2023-01-11T09:10:44.483Z,4.95
2023-01-11T09:13:10.686Z,2.28
2023-01-11T09:15:36.896Z,3.55
2023-01-11T09:18:03.170Z,5.93
2023-01-11T09:20:29.420Z,3.10
2023-01-11T09:22:55.692Z,0.80
2023-01-11T09:25:21.991Z,1.98
2023-01-11T09:27:49.491Z,5.82
2023-01-11T09:30:17.129Z,2.30
2023-01-11T09:32:43.427Z,2.88
2023-01-11T09:35:09.858Z,5.15
2023-01-11T09:37:39.698Z,3.35
2023-01-11T09:40:06.791Z,2.50
2023-01-11T09:42:37.646Z,4.28
2023-01-11T09:45:23.328Z,2.45
2023-01-11T09:48:04.772Z,5.72
2023-01-11T09:50:32.907Z,6.90
2023-01-11T09:53:09.072Z,2.55
2023-01-11T09:55:40.568Z,2.95
2023-01-11T09:58:30.849Z,2.58
2023-01-11T10:01:02.600Z,1.83
2023-01-11T10:03:49.783Z,3.38
2023-01-11T10:06:19.674Z,2.03
2023-01-11T10:18:31.137Z,4.10
2023-01-11T10:18:33.614Z,2.15
2023-01-11T10:20:42.802Z,2.75
2023-01-11T10:23:21.429Z,5.00
2023-01-11T10:25:51.553Z,4.88
2023-01-11T10:28:45.825Z,2.85
2023-01-11T10:31:29.883Z,3.17
2023-01-11T10:34:16.095Z,3.05
2023-01-11T10:37:05.773Z,3.17
2023-01-11T10:39:56.707Z,2.55
2023-01-11T10:42:25.118Z,1.33
2023-01-11T10:44:52.474Z,3.83
2023-01-11T10:47:21.137Z,7.50
2023-01-11T10:49:50.335Z,2.40
2023-01-11T10:52:41.403Z,5.03
2023-01-11T10:55:12.785Z,1.92
2023-01-11T10:57:38.991Z,3.00
2023-01-11T11:00:32.516Z,5.07
2023-01-11T11:03:10.877Z,3.42
2023-01-11T11:05:41.373Z,2.40
2023-01-11T11:08:07.613Z,3.38
2023-01-11T11:10:50.642Z,4.93
2023-01-11T11:13:25.848Z,2.63
2023-01-11T11:15:55.257Z,5.03
2023-01-11T11:18:22.233Z,3.72
2023-01-11T11:20:48.506Z,2.20
2023-01-11T11:23:19.654Z,5.07
2023-01-11T11:25:48.094Z,3.78
2023-01-11T11:28:14.292Z,4.38
2023-01-11T11:30:46.299Z,5.28
2023-01-11T11:33:27.153Z,3.72
2023-01-11T11:36:02.015Z,9.07
2023-01-11T11:38:32.471Z,2.88
2023-01-11T11:41:18.950Z,2.13
2023-01-11T11:43:48.019Z,1.90
2023-01-11T11:46:18.799Z,2.38
2023-01-11T11:49:05.382Z,4.40
2023-01-11T11:51:32.305Z,9.00
2023-01-11T11:56:27.415Z,3.67
2023-01-11T11:58:54.159Z,5.20
2023-01-11T12:01:20.340Z,5.22
2023-01-11T12:03:47.486Z,7.63
2023-01-11T12:06:20.545Z,16.70
2023-01-11T12:08:46.837Z,9.10
2023-01-11T12:11:15.229Z,19.83
2023-01-11T12:13:42.613Z,15.95
2023-01-11T12:16:22.787Z,21.48
2023-01-11T12:18:49.112Z,13.63
2023-01-11T12:21:17.809Z,19.85
2023-01-11T12:23:44.325Z,9.05
2023-01-11T12:26:10.524Z,13.10
2023-01-11T12:28:53.479Z,8.52
2023-01-11T12:31:38.323Z,11.52
2023-01-11T12:34:23.443Z,7.95
2023-01-11T12:37:08.579Z,7.05
2023-01-11T12:39:42.193Z,6.18
2023-01-11T12:42:27.716Z,2.85
2023-01-11T12:44:56.700Z,2.60
2023-01-11T12:47:35.150Z,1.10
2023-01-11T12:50:04.867Z,5.53
2023-01-11T12:52:41.286Z,7.47
2023-01-11T12:55:22.613Z,4.85
2023-01-11T12:58:08.110Z,8.38
2023-01-11T13:00:57.488Z,5.47
2023-01-11T13:03:42.667Z,2.78
2023-01-11T13:06:31.939Z,2.97
2023-01-11T13:09:15.426Z,6.40
2023-01-11T13:12:01.403Z,4.40
2023-01-11T13:14:27.588Z,6.47
2023-01-11T13:16:56.889Z,4.07
2023-01-11T13:19:49.459Z,6.07
2023-01-11T13:22:20.831Z,2.80
2023-01-11T13:24:48.027Z,3.15
2023-01-11T13:27:16.267Z,4.60
2023-01-11T13:29:43.873Z,3.92
2023-01-11T13:32:13.922Z,2.83
2023-01-11T13:34:41.872Z,3.25
2023-01-11T13:37:12.478Z,3.10
2023-01-11T13:39:57.759Z,2.20
2023-01-11T13:42:30.581Z,3.60
2023-01-11T13:44:59.817Z,1.27
2023-01-11T13:47:37.722Z,2.90
2023-01-11T13:50:04.121Z,3.65
2023-01-11T13:52:49.457Z,3.45
2023-01-11T13:55:25.978Z,2.03
2023-01-11T13:57:58.365Z,1.65
2023-01-11T14:00:24.690Z,2.60
2023-01-11T14:03:05.046Z,1.65
2023-01-11T14:05:39.660Z,4.70
2023-01-11T14:08:22.441Z,4.47
2023-01-11T14:10:58.820Z,2.20
2023-01-11T14:14:02.820Z,2.90
2023-01-11T14:16:45.104Z,5.38
2023-01-11T14:19:25.589Z,5.53
2023-01-11T14:21:51.779Z,6.38
2023-01-11T14:24:18.858Z,3.92
2023-01-11T14:26:54.081Z,3.20
2023-01-11T14:29:20.352Z,4.10
2023-01-11T14:31:58.767Z,4.15
2023-01-11T14:34:28.130Z,2.65
2023-01-11T14:37:13.110Z,2.95
2023-01-11T14:39:48.430Z,7.07
2023-01-11T14:42:31.202Z,5.50
2023-01-11T14:45:16.680Z,5.68
2023-01-11T14:47:45.741Z,3.90
2023-01-11T14:50:11.990Z,2.65
2023-01-11T14:52:40.453Z,8.90
2023-01-11T14:55:23.903Z,1.38
2023-01-11T14:57:56.352Z,4.63
2023-01-11T15:00:22.566Z,2.85
2023-01-11T15:02:52.792Z,4.80
2023-01-11T15:05:31.310Z,2.30
2023-01-11T15:08:09.585Z,4.10
2023-01-11T15:10:36.463Z,9.23
2023-01-11T15:15:47.771Z,4.70
2023-01-11T15:18:22.501Z,5.60
2023-01-11T15:20:53.188Z,6.10
2023-01-11T15:23:19.758Z,6.97
2023-01-11T15:25:47.485Z,8.52
2023-01-11T15:28:34.113Z,6.28
2023-01-11T15:31:02.432Z,5.65
2023-01-11T15:33:29.549Z,10.88
2023-01-11T15:35:55.901Z,8.75
2023-01-11T15:38:30.999Z,10.73
2023-01-11T15:41:18.095Z,8.50
2023-01-11T15:44:04.166Z,16.85
2023-01-11T15:46:55.301Z,5.65
2023-01-11T15:49:30.622Z,12.73
2023-01-11T15:52:06.335Z,7.18
2023-01-11T15:54:39.886Z,12.65
2023-01-11T15:57:12.228Z,7.07
2023-01-11T15:59:38.530Z,11.75
2023-01-11T16:02:04.775Z,8.00
2023-01-11T16:04:39.056Z,9.60
2023-01-11T16:07:12.840Z,5.78
2023-01-11T16:09:57.954Z,12.70
2023-01-11T16:12:31.409Z,9.93
2023-01-11T16:15:07.488Z,9.90
2023-01-11T16:17:33.868Z,7.93
2023-01-11T16:20:20.056Z,9.68
2023-01-11T16:22:49.001Z,12.32
2023-01-11T16:25:15.339Z,9.75
2023-01-11T16:27:41.651Z,10.70
2023-01-11T16:30:14.689Z,16.88
2023-01-11T16:32:40.934Z,12.30
2023-01-11T16:35:17.776Z,17.45
2023-01-11T16:37:45.598Z,8.45
2023-01-11T16:40:14.049Z,14.60
2023-01-11T16:42:51.523Z,18.35
2023-01-11T16:47:57.294Z,12.93
2023-01-11T16:50:25.099Z,15.68
2023-01-11T16:52:56.297Z,10.48
2023-01-11T16:55:24.508Z,11.85
2023-01-11T16:57:56.422Z,12.68
2023-01-11T17:00:35.312Z,14.32
2023-01-11T17:03:01.690Z,13.43
2023-01-11T17:05:27.992Z,11.65
2023-01-11T17:07:54.247Z,17.05
2023-01-11T17:10:21.718Z,8.65
2023-01-11T17:12:50.073Z,16.63
2023-01-11T17:15:25.745Z,8.90
2023-01-11T17:17:52.020Z,13.20
2023-01-11T17:20:22.840Z,11.18
2023-01-11T17:22:53.529Z,6.90
2023-01-11T17:25:23.090Z,15.68
2023-01-11T17:27:53.086Z,10.73
2023-01-11T17:30:21.477Z,16.95
2023-01-11T17:32:49.397Z,13.20
2023-01-11T17:35:17.067Z,14.82
2023-01-11T17:37:48.270Z,12.68
2023-01-11T17:40:26.159Z,13.90
2023-01-11T17:43:13.054Z,15.57
2023-01-11T17:45:39.405Z,15.35
2023-01-11T17:48:12.945Z,22.98
2023-01-11T17:50:49.307Z,41.38
2023-01-11T17:53:22.310Z,21.02
2023-01-11T17:55:53.019Z,41.50
2023-01-11T17:58:21.480Z,22.98
2023-01-11T18:01:09.194Z,17.52
2023-01-11T18:03:39.646Z,22.80
2023-01-11T18:06:29.308Z,21.33
2023-01-11T18:08:56.472Z,17.13
2023-01-11T18:11:24.133Z,17.90
2023-01-11T18:13:54.145Z,15.63
2023-01-11T18:16:21.646Z,18.10
2023-01-11T18:18:49.016Z,16.40
2023-01-11T18:21:32.420Z,13.48
2023-01-11T18:24:07.561Z,16.85
2023-01-11T18:26:33.785Z,12.23
2023-01-11T18:28:59.996Z,14.57
2023-01-11T18:31:26.248Z,16.88
2023-01-11T18:33:52.466Z,14.43
2023-01-11T18:36:19.959Z,16.35
2023-01-11T18:38:46.215Z,17.42
2023-01-11T18:41:31.411Z,20.50
2023-01-11T18:43:57.694Z,8.15
2023-01-11T18:46:23.962Z,18.60
2023-01-11T18:48:50.309Z,20.65
2023-01-11T18:51:17.953Z,20.13
2023-01-11T18:53:44.187Z,7.97
2023-01-11T18:56:10.394Z,15.18
2023-01-11T18:58:36.666Z,9.68
2023-01-11T19:01:05.443Z,14.60
2023-01-11T19:03:31.759Z,14.60
2023-01-11T19:05:58.059Z,12.98
2023-01-11T19:08:24.275Z,20.48
2023-01-11T19:10:51.380Z,15.68
2023-01-11T19:13:19.254Z,15.65
2023-01-11T19:15:45.842Z,13.77
2023-01-11T19:18:12.090Z,13.77
2023-01-11T19:20:39.702Z,12.77
2023-01-11T19:23:05.942Z,14.32
2023-01-11T19:25:32.493Z,18.60
2023-01-11T19:27:58.772Z,13.30
2023-01-11T19:30:25.903Z,19.30
2023-01-11T19:32:52.835Z,32.42
2023-01-11T19:37:45.376Z,40.63
2023-01-11T19:40:11.824Z,21.63
2023-01-11T19:42:40.794Z,29.48
2023-01-11T19:45:07.689Z,30.17
2023-01-11T19:50:01.034Z,20.58
2023-01-11T19:52:27.721Z,27.38
2023-01-11T19:54:55.013Z,28.75
2023-01-11T19:57:21.583Z,18.95
2023-01-11T19:59:48.473Z,17.73
2023-01-11T20:04:41.473Z,12.00
2023-01-11T20:07:08.962Z,9.30
2023-01-11T20:09:37.680Z,16.10
2023-01-11T20:12:04.696Z,16.73
2023-01-11T20:14:31.172Z,13.90
2023-01-11T20:16:57.457Z,13.30
2023-01-11T20:19:23.662Z,17.40
2023-01-11T20:21:49.891Z,17.63
2023-01-11T20:24:16.136Z,14.45
2023-01-11T20:26:42.406Z,11.85
2023-01-11T20:29:08.678Z,25.75
2023-01-11T20:31:35.553Z,17.42
2023-01-11T20:34:08.870Z,13.70
2023-01-11T20:36:35.248Z,10.52
2023-01-11T20:39:01.487Z,13.80
2023-01-11T20:41:46.638Z,12.50
2023-01-11T20:44:14.594Z,19.00
2023-01-11T20:46:40.882Z,11.57
2023-01-11T20:49:07.841Z,14.88
2023-01-11T20:54:00.521Z,11.50
2023-01-11T20:56:26.758Z,24.50
2023-01-11T20:58:53.006Z,10.52
2023-01-11T21:01:24.444Z,15.65
2023-01-11T21:03:50.693Z,22.63
2023-01-11T21:06:17.012Z,14.63
2023-01-11T21:08:43.411Z,15.30
2023-01-11T21:11:11.247Z,16.85
2023-01-11T21:13:37.490Z,18.20
2023-01-11T21:16:16.309Z,19.83
2023-01-11T21:18:46.100Z,15.07
2023-01-11T21:21:13.706Z,17.85
2023-01-11T21:23:40.108Z,10.70
2023-01-11T21:26:11.556Z,16.88
2023-01-11T21:28:38.355Z,12.70
2023-01-11T21:31:05.267Z,18.63
2023-01-11T21:33:31.978Z,14.68
2023-01-11T21:36:02.223Z,21.30
2023-01-11T21:38:32.164Z,18.30
2023-01-11T21:41:08.724Z,13.60
2023-01-11T21:43:35.128Z,11.40
2023-01-11T21:46:01.948Z,25.05
2023-01-11T21:48:28.524Z,13.25
2023-01-11T21:50:54.732Z,13.38
2023-01-11T21:53:21.132Z,15.60
2023-01-11T21:55:47.519Z,16.13
2023-01-11T21:58:13.739Z,8.40
2023-01-11T22:00:40.035Z,15.35
2023-01-11T22:03:06.275Z,11.07
2023-01-11T22:05:32.501Z,9.05
2023-01-11T22:07:58.881Z,17.35
2023-01-11T22:10:26.621Z,12.35
2023-01-11T22:12:52.895Z,11.73
2023-01-11T22:15:19.297Z,15.02
2023-01-11T22:17:45.546Z,10.23
2023-01-11T22:20:12.188Z,9.45
2023-01-11T22:22:38.428Z,14.73
2023-01-11T22:25:04.856Z,17.10
2023-01-11T22:27:31.088Z,19.38
2023-01-11T22:29:57.304Z,11.02
2023-01-11T22:32:23.603Z,14.80
2023-01-11T22:34:49.804Z,17.50
2023-01-11T22:37:16.069Z,16.58
2023-01-11T22:39:42.285Z,14.02
2023-01-11T22:42:08.596Z,13.07
2023-01-11T22:44:34.929Z,12.90
2023-01-11T22:47:01.333Z,13.18
2023-01-11T22:49:27.565Z,18.90
2023-01-11T22:51:53.799Z,15.27
2023-01-11T22:54:20.055Z,13.35
2023-01-11T22:56:46.283Z,14.35
2023-01-11T22:59:12.543Z,8.60
2023-01-11T23:01:39.702Z,16.15
2023-01-11T23:04:07.113Z,19.30
2023-01-11T23:06:34.573Z,12.70
2023-01-11T23:09:00.851Z,14.23
2023-01-11T23:11:46.901Z,7.90
2023-01-11T23:14:14.014Z,7.78
2023-01-11T23:16:40.779Z,13.13
2023-01-11T23:19:07.813Z,12.68
2023-01-11T23:24:00.821Z,9.20
2023-01-11T23:26:27.276Z,9.23
2023-01-11T23:28:53.533Z,16.63
2023-01-11T23:31:20.934Z,12.10
2023-01-11T23:33:48.229Z,17.98
2023-01-11T23:36:15.067Z,15.75
2023-01-11T23:41:30.089Z,15.25
2023-01-11T23:43:56.524Z,20.48
2023-01-11T23:46:41.582Z,22.08
2023-01-11T23:49:08.543Z,16.20
2023-01-11T23:51:35.065Z,14.40
2023-01-11T23:54:02.104Z,9.93
2023-01-11T23:56:29.150Z,11.25
2023-01-11T23:58:55.737Z,15.30
